Time;durP1;ratioP1;P1;durP2;ratioP2;P2;SDS_P1;SDS_P2;PMS_P1;PMS_P2;Temp;Humidity;BMP_temperature;BMP_pressure;BME280_temperature;BME280_humidity;BME280_pressure;Samples;Min_cycle;Max_cycle;Signal;HPM_P1;HPM_P2
2022/06/16 00:00:46;;;;;;;4.85;2.74;;;;;;;;;;363423;144;857117;-56
2022/06/16 00:01:48;;;;;;;5.06;2.58;;;;;;;;;;361551;144;863835;-57
2022/06/16 00:02:50;;;;;;;4.05;2.26;;;;;;;;;;363397;144;857693;-56
2022/06/16 00:03:52;;;;;;;7.99;2.67;;;;;;;;;;362237;144;858961;-56
2022/06/16 00:04:54;;;;;;;4.78;2.50;;;;;;;;;;363185;144;859388;-56
2022/06/16 00:05:55;;;;;;;5.99;2.58;;;;;;;;;;363611;144;865675;-56
2022/06/16 00:06:59;;;;;;;6.07;2.71;;;;;;;;;;361686;144;864830;-56
2022/06/16 00:08:04;;;;;;;4.95;2.64;;;;;;;;;;362695;144;859434;-55
2022/06/16 00:09:06;;;;;;;3.78;2.88;;;;;;;;;;362189;147;857208;-56
2022/06/16 00:10:08;;;;;;;3.86;2.78;;;;;;;;;;362690;144;857741;-56
2022/06/16 00:11:19;;;;;;;4.31;2.50;;;;;;;;;;362482;144;858282;-57
2022/06/16 00:12:21;;;;;;;5.14;2.67;;;;;;;;;;363393;144;858972;-57
2022/06/16 00:13:23;;;;;;;5.10;2.81;;;;;;;;;;362122;144;857891;-57
2022/06/16 00:14:27;;;;;;;6.64;3.19;;;;;;;;;;362397;144;864846;-57
2022/06/16 00:15:28;;;;;;;8.51;3.05;;;;;;;;;;363704;144;858934;-57
2022/06/16 00:16:29;;;;;;;6.18;2.75;;;;;;;;;;363225;144;857353;-57
2022/06/16 00:17:31;;;;;;;5.29;2.89;;;;;;;;;;362619;144;859737;-57
2022/06/16 00:18:33;;;;;;;13.41;2.75;;;;;;;;;;362949;144;864790;-57
2022/06/16 00:19:34;;;;;;;5.61;2.74;;;;;;;;;;362607;144;858345;-57
2022/06/16 00:20:36;;;;;;;5.06;2.76;;;;;;;;;;362961;144;859210;-57
2022/06/16 00:21:37;;;;;;;5.28;2.52;;;;;;;;;;361168;144;864395;-56
2022/06/16 00:22:39;;;;;;;3.96;2.59;;;;;;;;;;358895;148;866583;-60
2022/06/16 00:23:41;;;;;;;3.89;2.51;;;;;;;;;;358986;147;859239;-57
2022/06/16 00:24:43;;;;;;;5.62;2.48;;;;;;;;;;359516;148;856346;-56
2022/06/16 00:25:46;;;;;;;7.05;2.61;;;;;;;;;;360514;147;864899;-57
2022/06/16 00:26:47;;;;;;;6.42;2.92;;;;;;;;;;359994;147;857322;-56
2022/06/16 00:27:49;;;;;;;6.61;2.84;;;;;;;;;;359287;148;866915;-57
2022/06/16 00:28:51;;;;;;;6.51;2.88;;;;;;;;;;359355;148;864875;-56
2022/06/16 00:41:42;;;;;;;6.63;2.52;;;;;;;12.23;63.07;100130.25;370460;142;880440;-57
2022/06/16 00:42:44;;;;;;;4.07;2.68;;;;;;;12.12;63.33;100140.75;363013;146;859318;-57
2022/06/16 00:43:46;;;;;;;6.59;2.59;;;;;;;12.12;63.46;100125.17;362463;145;857188;-56
2022/06/16 00:44:52;;;;;;;7.37;2.85;;;;;;;12.12;63.33;100134.67;362461;146;856792;-57
2022/06/16 00:45:59;;;;;;;5.12;2.78;;;;;;;12.08;63.42;100136.47;363702;147;864466;-56
2022/06/16 00:47:01;;;;;;;4.72;2.96;;;;;;;12.08;63.58;100130.40;363068;146;858387;-56
2022/06/16 00:48:03;;;;;;;5.75;3.03;;;;;;;12.11;63.90;100130.36;361401;147;857252;-57
2022/06/16 00:49:06;;;;;;;8.44;3.05;;;;;;;12.10;63.72;100128.64;362150;146;857168;-56
2022/06/16 00:50:09;;;;;;;5.13;3.14;;;;;;;12.11;63.68;100135.55;362198;147;857258;-57
2022/06/16 00:51:37;;;;;;;8.84;2.75;;;;;;;12.09;63.60;100127.80;362452;146;859175;-57
2022/06/16 00:52:39;;;;;;;5.99;2.85;;;;;;;12.11;63.72;100140.75;361478;147;856449;-57
2022/06/16 00:53:41;;;;;;;8.17;2.51;;;;;;;12.14;63.79;100135.52;357725;148;857165;-56
2022/06/16 00:55:05;;;;;;;6.21;3.16;;;;;;;12.20;63.73;100135.48;357880;147;858614;-57
2022/06/16 00:56:09;;;;;;;7.33;2.43;;;;;;;12.26;63.45;100138.00;360780;147;857166;-56
2022/06/16 00:57:14;;;;;;;5.40;2.49;;;;;;;12.31;63.59;100137.93;362401;147;857193;-56
2022/06/16 00:58:16;;;;;;;6.52;3.03;;;;;;;12.38;63.08;100136.13;363130;147;858833;-56
2022/06/16 00:59:19;;;;;;;4.62;2.69;;;;;;;12.40;62.81;100134.38;360519;147;857186;-56
2022/06/16 01:00:30;;;;;;;6.52;2.47;;;;;;;12.35;62.75;100141.37;361517;146;858347;-57
2022/06/16 01:01:31;;;;;;;6.95;3.31;;;;;;;12.32;63.02;100139.65;361921;147;857192;-57
2022/06/16 01:02:33;;;;;;;6.02;2.91;;;;;;;12.30;62.97;100138.81;362853;146;865493;-57
2022/06/16 01:04:56;;;;;;;6.35;2.94;;;;;;;12.27;63.00;100137.12;362337;146;864865;-57
2022/06/16 01:05:57;;;;;;;5.33;2.97;;;;;;;12.28;63.02;100135.37;360519;147;857185;-56
2022/06/16 01:07:02;;;;;;;5.81;3.19;;;;;;;12.29;63.22;100126.70;362074;147;857258;-57
2022/06/16 01:08:04;;;;;;;8.55;3.34;;;;;;;12.30;63.13;100133.62;356470;148;858878;-56
2022/06/16 01:09:11;;;;;;;3.53;2.63;;;;;;;12.30;63.01;100130.18;356546;148;857275;-57
2022/06/16 01:10:15;;;;;;;4.61;2.78;;;;;;;12.29;62.97;100136.25;361270;147;864697;-58
2022/06/16 01:14:56;;;;;;;5.08;2.58;;;;;;;12.10;63.27;100132.12;361423;147;857247;-56
2022/06/16 01:16:26;;;;;;;3.77;2.61;;;;;;;12.08;63.77;100130.40;363446;147;857340;-57
2022/06/16 01:17:31;;;;;;;5.34;2.69;;;;;;;12.04;63.80;100132.19;361893;147;858035;-57
2022/06/16 01:18:43;;;;;;;4.55;2.78;;;;;;;12.05;63.66;100131.31;362408;146;857789;-57
2022/06/16 01:19:54;;;;;;;6.11;2.70;;;;;;;12.01;63.67;100132.22;362118;147;857241;-57
2022/06/16 01:21:03;;;;;;;5.06;3.07;;;;;;;11.99;63.63;100128.75;361512;146;856363;-57
2022/06/16 01:22:09;;;;;;;3.46;2.46;;;;;;;11.98;63.72;100129.63;360680;147;857853;-58
2022/06/16 01:31:12;;;;;;;3.84;2.66;;;;;;;12.13;63.61;100126.02;377741;139;881347;-57
2022/06/16 01:32:23;;;;;;;4.82;2.54;;;;;;;12.04;63.46;100132.19;368679;141;857178;-57
2022/06/16 01:33:46;;;;;;;6.06;2.66;;;;;;;12.04;63.52;100131.31;370041;141;857172;-55
2022/06/16 01:35:00;;;;;;;5.36;3.05;;;;;;;12.04;63.73;100133.91;369974;142;857628;-58
2022/06/16 01:36:25;;;;;;;5.75;2.40;;;;;;;12.04;64.09;100132.19;370240;141;857217;-58
2022/06/16 01:37:52;;;;;;;3.23;2.37;;;;;;;12.09;64.40;100127.80;372516;141;858904;-56
2022/06/16 01:39:03;;;;;;;3.68;2.42;;;;;;;12.17;64.72;100125.10;369799;141;857618;-57
2022/06/16 01:40:21;;;;;;;8.40;2.76;;;;;;;12.22;64.33;100131.13;369643;144;859807;-56
2022/06/16 01:41:27;;;;;;;4.84;2.58;;;;;;;12.21;64.40;100129.41;370805;141;857544;-57
2022/06/16 01:42:50;;;;;;;4.50;2.80;;;;;;;12.20;64.68;100126.81;368758;141;859112;-57
2022/06/16 01:44:02;;;;;;;3.97;2.58;;;;;;;12.21;64.78;100125.94;369506;141;859207;-57
2022/06/16 01:45:13;;;;;;;5.22;2.87;;;;;;;12.24;64.69;100129.38;370131;144;857369;-57
2022/06/16 01:46:26;;;;;;;4.52;2.86;;;;;;;12.28;64.77;100127.59;371185;144;859978;-58
2022/06/16 01:47:29;;;;;;;4.54;3.06;;;;;;;12.35;64.59;100124.03;371648;141;857217;-57
2022/06/16 01:48:32;;;;;;;3.56;2.49;;;;;;;12.39;64.51;100128.31;369820;142;857328;-57
2022/06/16 01:49:35;;;;;;;5.74;2.88;;;;;;;12.45;64.14;100129.11;363512;146;856353;-57
2022/06/16 01:50:57;;;;;;;5.31;2.92;;;;;;;12.44;63.94;100130.86;363659;143;860210;-57
2022/06/16 01:52:07;;;;;;;4.04;2.62;;;;;;;12.49;64.07;100128.19;369123;141;857439;-57
2022/06/16 01:53:13;;;;;;;4.89;2.70;;;;;;;12.58;64.06;100128.07;369728;144;857187;-57
2022/06/16 01:54:20;;;;;;;4.75;2.71;;;;;;;12.63;64.32;100133.22;371847;144;859079;-56
2022/06/16 01:55:25;;;;;;;8.43;3.11;;;;;;;12.69;64.21;100138.33;369871;144;859328;-56
2022/06/16 01:56:32;;;;;;;4.74;2.88;;;;;;;12.70;64.15;100129.66;373402;141;857698;-56
2022/06/16 01:57:41;;;;;;;3.59;2.63;;;;;;;12.71;63.99;100128.77;372184;141;864825;-56
2022/06/16 01:58:47;;;;;;;7.52;3.14;;;;;;;12.76;63.97;100126.13;370366;144;859765;-56
2022/06/16 01:59:52;;;;;;;4.84;2.56;;;;;;;12.79;63.89;100118.29;370355;141;857834;-56
2022/06/16 02:00:56;;;;;;;7.53;3.05;;;;;;;12.80;63.48;100120.01;373652;141;857174;-58
2022/06/16 02:02:02;;;;;;;9.84;3.12;;;;;;;12.73;63.47;100126.17;372384;141;858671;-57
2022/06/16 02:03:20;;;;;;;9.77;2.81;;;;;;;12.64;63.25;100127.14;371418;141;859074;-57
2022/06/16 02:04:28;;;;;;;6.09;2.66;;;;;;;12.53;63.30;100125.55;372670;142;858349;-57
2022/06/16 02:05:37;;;;;;;4.37;2.86;;;;;;;12.49;63.94;100135.98;371895;141;857287;-57
2022/06/16 02:06:41;;;;;;;4.20;2.79;;;;;;;12.48;64.35;100129.07;371878;141;857737;-57
2022/06/16 02:07:46;;;;;;;4.18;3.00;;;;;;;12.46;64.53;100133.42;372617;141;857200;-57
2022/06/16 02:08:52;;;;;;;4.01;2.67;;;;;;;12.45;64.68;100132.58;372453;141;859312;-57
2022/06/16 02:09:55;;;;;;;5.37;2.97;;;;;;;12.46;64.72;100134.30;368823;144;856673;-57
2022/06/16 02:10:59;;;;;;;4.37;2.76;;;;;;;12.46;64.76;100136.02;370589;141;856149;-57
2022/06/16 02:12:01;;;;;;;6.54;2.69;;;;;;;;;;371547;141;864875;-57
2022/06/16 02:13:04;;;;;;;7.02;2.97;;;;;;;;;;370175;143;859530;-58
2022/06/16 02:14:17;;;;;;;4.51;2.94;;;;;;;;;;368236;141;857307;-58
2022/06/16 02:15:30;;;;;;;4.29;2.81;;;;;;;;;;371755;141;857221;-56
2022/06/16 02:16:33;;;;;;;6.16;2.83;;;;;;;;;;371925;141;859237;-57
2022/06/16 02:17:34;;;;;;;6.11;3.02;;;;;;;;;;370577;141;857865;-57
2022/06/16 02:18:36;;;;;;;9.84;3.02;;;;;;;;;;370951;141;856381;-57
2022/06/16 02:19:38;;;;;;;8.39;2.62;;;;;;;;;;373809;141;863861;-56
2022/06/16 02:20:44;;;;;;;7.66;2.91;;;;;;;;;;371113;141;860430;-57
2022/06/16 02:21:47;;;;;;;8.13;3.14;;;;;;;;;;371069;141;864866;-57
2022/06/16 02:22:49;;;;;;;5.15;2.78;;;;;;;;;;374446;141;857163;-56
2022/06/16 02:23:51;;;;;;;4.47;2.69;;;;;;;;;;371908;141;856209;-57
2022/06/16 02:24:52;;;;;;;8.03;2.91;;;;;;;;;;372884;141;858975;-56
2022/06/16 02:25:55;;;;;;;4.83;2.54;;;;;;;;;;371396;141;856265;-56
2022/06/16 02:26:58;;;;;;;4.61;2.81;;;;;;;;;;370089;141;866568;-56
2022/06/16 02:28:00;;;;;;;9.88;3.11;;;;;;;;;;372873;141;858317;-56
2022/06/16 02:29:03;;;;;;;8.61;3.11;;;;;;;;;;372040;142;857741;-57
2022/06/16 02:30:06;;;;;;;4.61;2.69;;;;;;;;;;371734;141;858614;-56
2022/06/16 02:31:15;;;;;;;6.31;2.99;;;;;;;;;;369452;144;858914;-56
2022/06/16 02:32:25;;;;;;;5.29;2.78;;;;;;;;;;369505;143;857246;-56
2022/06/16 02:33:28;;;;;;;5.19;2.54;;;;;;;;;;369110;142;857364;-57
2022/06/16 02:34:35;;;;;;;5.10;2.91;;;;;;;;;;370068;143;858613;-56
2022/06/16 02:35:38;;;;;;;7.26;2.96;;;;;;;;;;370708;142;864802;-56
2022/06/16 02:36:42;;;;;;;9.34;3.25;;;;;;;;;;370301;143;857904;-56
2022/06/16 02:37:46;;;;;;;6.46;2.72;;;;;;;;;;369301;142;859478;-56
2022/06/16 02:38:52;;;;;;;6.51;3.03;;;;;;;;;;369197;143;859315;-57
2022/06/16 02:39:59;;;;;;;7.38;2.48;;;;;;;;;;368467;142;865040;-57
2022/06/16 02:41:02;;;;;;;8.27;3.21;;;;;;;;;;369096;142;857206;-57
2022/06/16 02:42:06;;;;;;;5.64;2.76;;;;;;;;;;369166;143;858621;-56
2022/06/16 02:43:28;;;;;;;9.28;3.31;;;;;;;;;;368714;142;857855;-57
2022/06/16 02:44:33;;;;;;;4.64;2.37;;;;;;;;;;367643;143;859251;-57
2022/06/16 02:45:37;;;;;;;6.58;2.91;;;;;;;;;;369550;143;858231;-59
2022/06/16 02:46:52;;;;;;;6.75;2.89;;;;;;;;;;370521;142;856461;-58
2022/06/16 02:48:14;;;;;;;4.60;2.68;;;;;;;;;;369223;142;864662;-58
2022/06/16 02:49:36;;;;;;;3.97;2.54;;;;;;;;;;372013;142;857169;-57
2022/06/16 02:50:56;;;;;;;4.23;2.34;;;;;;;;;;369811;143;857392;-58
2022/06/16 02:51:59;;;;;;;4.91;2.68;;;;;;;;;;372296;142;857256;-57
2022/06/16 02:53:05;;;;;;;4.48;2.14;;;;;;;;;;369415;143;859624;-58
2022/06/16 02:54:20;;;;;;;4.26;2.37;;;;;;;;;;369184;143;858634;-58
2022/06/16 02:55:30;;;;;;;3.36;2.45;;;;;;;;;;367921;143;859712;-57
2022/06/16 02:56:46;;;;;;;5.48;2.53;;;;;;;;;;370540;143;859000;-57
2022/06/16 02:57:49;;;;;;;5.76;2.33;;;;;;;;;;370544;142;858395;-57
2022/06/16 02:58:51;;;;;;;5.87;2.75;;;;;;;;;;370361;142;859161;-58
2022/06/16 02:59:57;;;;;;;5.64;2.43;;;;;;;;;;368532;143;857192;-56
2022/06/16 03:00:58;;;;;;;4.26;2.68;;;;;;;;;;369235;143;860020;-57
2022/06/16 03:02:01;;;;;;;4.17;2.54;;;;;;;;;;369835;142;857262;-57
2022/06/16 03:03:04;;;;;;;3.99;2.65;;;;;;;;;;369569;142;864657;-57
2022/06/16 03:04:08;;;;;;;4.59;2.52;;;;;;;;;;362682;142;857264;-57
2022/06/16 03:05:11;;;;;;;4.03;2.46;;;;;;;;;;367645;142;865245;-57
2022/06/16 03:06:14;;;;;;;3.21;2.29;;;;;;;;;;369233;142;863593;-57
2022/06/16 03:07:16;;;;;;;3.73;2.36;;;;;;;;;;372832;142;856372;-58
2022/06/16 03:08:18;;;;;;;4.05;2.43;;;;;;;;;;369991;142;856170;-58
2022/06/16 03:09:20;;;;;;;3.97;2.34;;;;;;;;;;372312;142;856215;-58
2022/06/16 03:11:42;;;;;;;7.14;2.36;;;;;;;;;;370418;142;863810;-58
2022/06/16 03:12:43;;;;;;;5.14;2.46;;;;;;;;;;370956;142;856211;-57
2022/06/16 03:13:45;;;;;;;6.64;2.39;;;;;;;;;;369568;142;863571;-57
2022/06/16 03:14:46;;;;;;;10.74;3.20;;;;;;;;;;370845;142;856084;-57
2022/06/16 03:15:48;;;;;;;6.52;3.06;;;;;;;;;;370758;142;856149;-57
2022/06/16 03:16:50;;;;;;;4.66;2.59;;;;;;;;;;372487;142;856060;-58
2022/06/16 03:17:52;;;;;;;4.91;2.44;;;;;;;;;;370551;142;856266;-58
2022/06/16 03:18:53;;;;;;;2.92;2.15;;;;;;;;;;370622;143;858638;-58
2022/06/16 03:19:55;;;;;;;3.74;2.50;;;;;;;;;;370659;142;864196;-58
2022/06/16 03:20:57;;;;;;;4.92;2.31;;;;;;;;;;371732;142;856243;-58
2022/06/16 03:21:58;;;;;;;4.71;2.45;;;;;;;;;;370732;142;856235;-57
2022/06/16 03:23:00;;;;;;;3.68;2.51;;;;;;;;;;370523;142;856258;-59
2022/06/16 03:24:02;;;;;;;5.01;2.69;;;;;;;;;;370576;143;863531;-57
2022/06/16 03:25:03;;;;;;;3.18;2.39;;;;;;;;;;370615;142;856297;-56
2022/06/16 03:26:06;;;;;;;6.63;2.59;;;;;;;;;;371975;142;863806;-58
2022/06/16 03:27:07;;;;;;;5.11;2.47;;;;;;;;;;369228;142;856192;-58
2022/06/16 03:28:09;;;;;;;4.09;2.44;;;;;;;;;;370695;142;856686;-59
2022/06/16 03:29:11;;;;;;;4.49;2.51;;;;;;;;;;372241;142;863792;-58
2022/06/16 03:30:12;;;;;;;6.64;2.64;;;;;;;;;;370255;143;856188;-57
2022/06/16 03:31:14;;;;;;;4.79;2.62;;;;;;;;;;372216;141;863637;-58
2022/06/16 03:32:16;;;;;;;8.66;2.57;;;;;;;;;;372191;141;856863;-58
2022/06/16 03:33:17;;;;;;;4.31;2.37;;;;;;;;;;369177;142;863535;-56
2022/06/16 03:34:19;;;;;;;5.59;2.71;;;;;;;;;;370107;141;858655;-56
2022/06/16 03:35:20;;;;;;;6.31;2.25;;;;;;;;;;374731;141;856175;-56
2022/06/16 03:36:22;;;;;;;5.21;2.10;;;;;;;;;;370065;144;866490;-56
2022/06/16 03:37:24;;;;;;;2.98;2.29;;;;;;;;;;369708;141;866464;-55
2022/06/16 03:38:44;;;;;;;5.22;2.52;;;;;;;;;;372340;141;859264;-55
2022/06/16 03:39:45;;;;;;;6.86;2.44;;;;;;;;;;369761;144;857149;-55
2022/06/16 03:40:47;;;;;;;4.95;2.35;;;;;;;;;;370274;144;857139;-55
2022/06/16 03:41:49;;;;;;;4.88;2.68;;;;;;;;;;371095;141;865439;-55
2022/06/16 03:42:50;;;;;;;5.20;2.62;;;;;;;;;;370538;141;864666;-55
2022/06/16 03:43:52;;;;;;;5.39;2.71;;;;;;;;;;370694;141;856390;-56
2022/06/16 03:44:54;;;;;;;6.02;2.59;;;;;;;;;;370763;141;864756;-56
2022/06/16 03:45:56;;;;;;;5.05;2.59;;;;;;;;;;371358;142;859086;-55
2022/06/16 03:46:58;;;;;;;6.40;2.32;;;;;;;;;;369407;144;867275;-56
2022/06/16 03:47:59;;;;;;;6.26;3.44;;;;;;;;;;371050;141;864197;-55
2022/06/16 03:49:02;;;;;;;5.02;2.36;;;;;;;;;;370602;144;865036;-55
2022/06/16 03:50:05;;;;;;;5.23;2.67;;;;;;;;;;369829;141;864266;-56
2022/06/16 03:51:08;;;;;;;4.07;2.44;;;;;;;;;;371471;144;860228;-58
2022/06/16 03:52:10;;;;;;;4.15;2.37;;;;;;;;;;371350;141;865479;-60
2022/06/16 03:53:11;;;;;;;7.09;2.40;;;;;;;;;;368422;134;856383;-59
2022/06/16 03:54:13;;;;;;;6.86;2.28;;;;;;;;;;360532;146;866430;-61
2022/06/16 03:55:15;;;;;;;7.51;2.39;;;;;;;;;;360963;145;865388;-61
2022/06/16 03:56:16;;;;;;;5.92;2.66;;;;;;;;;;361039;143;866353;-61
2022/06/16 03:57:18;;;;;;;6.49;2.12;;;;;;;;;;364473;144;866312;-63
2022/06/16 03:58:20;;;;;;;4.49;2.14;;;;;;;;;;362280;144;858677;-62
2022/06/16 03:59:21;;;;;;;6.34;2.36;;;;;;;;;;363203;146;858695;-63
2022/06/16 04:00:24;;;;;;;3.31;2.36;;;;;;;;;;363727;144;857190;-58
2022/06/16 04:01:26;;;;;;;4.87;2.10;;;;;;;;;;363420;144;857225;-57
2022/06/16 04:02:27;;;;;;;4.91;2.06;;;;;;;;;;364203;144;857288;-58
2022/06/16 04:04:49;;;;;;;;;;;;;;;;;;365399;146;863779;-57
2022/06/16 04:05:51;;;;;;;3.11;2.16;;;;;;;;;;356146;148;857280;-57
2022/06/16 04:06:53;;;;;;;7.05;2.77;;;;;;;;;;348613;150;859250;-58
2022/06/16 04:07:54;;;;;;;4.48;2.26;;;;;;;;;;364174;144;864908;-59
2022/06/16 04:08:56;;;;;;;3.57;2.36;;;;;;;;;;364886;142;856249;-57
2022/06/16 04:09:57;;;;;;;4.39;2.63;;;;;;;;;;367437;143;859262;-58
2022/06/16 04:11:26;;;;;;;4.55;2.26;;;;;;;;;;368432;144;864310;-57
2022/06/16 04:12:04;;;;;;;4.22;2.41;;;;;;;;;;363881;142;867733;-57
2022/06/16 04:13:05;;;;;;;3.83;2.05;;;;;;;;;;368913;143;856167;-56
2022/06/16 04:14:08;;;;;;;4.36;2.28;;;;;;;;;;370504;142;864717;-56
2022/06/16 04:15:10;;;;;;;4.51;2.13;;;;;;;;;;369667;142;864773;-58
2022/06/16 04:16:12;;;;;;;4.22;2.43;;;;;;;;;;369446;142;857223;-58
2022/06/16 04:17:13;;;;;;;3.74;2.11;;;;;;;;;;367944;142;856782;-58
2022/06/16 04:18:15;;;;;;;3.80;1.99;;;;;;;;;;368387;143;859043;-58
2022/06/16 04:19:17;;;;;;;5.45;2.16;;;;;;;;;;362947;145;858298;-57
2022/06/16 04:20:21;;;;;;;4.19;2.44;;;;;;;;;;357299;148;864862;-58
2022/06/16 04:21:23;;;;;;;3.79;2.07;;;;;;;;;;368721;143;857393;-59
2022/06/16 04:22:25;;;;;;;4.81;2.43;;;;;;;;;;368509;142;857261;-58
2022/06/16 04:23:26;;;;;;;3.80;1.82;;;;;;;;;;369056;143;863684;-57
2022/06/16 04:24:29;;;;;;;2.61;2.19;;;;;;;;;;369141;142;856319;-58
2022/06/16 04:25:31;;;;;;;8.76;2.55;;;;;;;;;;370006;142;856597;-58
2022/06/16 04:26:38;;;;;;;4.51;2.30;;;;;;;;;;369714;142;856360;-58
2022/06/16 04:27:40;;;;;;;3.22;1.97;;;;;;;;;;368904;142;856376;-58
2022/06/16 04:30:37;;;;;;;8.54;2.40;;;;;;;16.33;55.43;100168.30;371132;142;867879;-59
2022/06/16 04:31:39;;;;;;;3.35;2.11;;;;;;;16.31;55.62;100170.94;361988;147;857524;-58
2022/06/16 04:32:41;;;;;;;3.27;2.15;;;;;;;16.40;55.48;100168.96;361855;147;859230;-58
2022/06/16 04:33:42;;;;;;;5.28;2.66;;;;;;;16.49;55.43;100169.56;360779;147;857214;-59
2022/06/16 04:34:44;;;;;;;6.20;2.24;;;;;;;16.57;54.87;100174.59;361808;146;866468;-59
2022/06/16 04:35:46;;;;;;;3.91;2.35;;;;;;;16.63;54.80;100169.18;362305;147;864174;-60
2022/06/16 04:36:50;;;;;;;3.77;2.01;;;;;;;16.71;54.41;100175.94;361690;147;857789;-58
2022/06/16 04:37:52;;;;;;;3.21;2.14;;;;;;;16.79;54.38;100169.55;360762;147;856783;-60
2022/06/16 04:38:55;;;;;;;3.88;2.45;;;;;;;16.86;54.90;100171.98;361235;147;857239;-60
2022/06/16 04:39:57;;;;;;;3.59;2.11;;;;;;;16.93;54.25;100176.13;361212;147;857257;-57
2022/06/16 04:40:58;;;;;;;6.26;2.10;;;;;;;17.00;54.33;100174.22;361386;147;857373;-57
2022/06/16 04:42:00;;;;;;;4.09;2.21;;;;;;;17.05;53.54;100174.94;361072;147;865011;-56
2022/06/16 04:43:03;;;;;;;5.74;2.14;;;;;;;17.10;53.85;100167.80;361827;147;858946;-57
2022/06/16 04:44:04;;;;;;;4.47;2.34;;;;;;;17.10;53.62;100174.80;362008;147;864830;-58
2022/06/16 04:45:10;;;;;;;4.17;2.11;;;;;;;17.11;54.18;100172.13;356065;150;857839;-57
2022/06/16 04:46:13;;;;;;;5.04;2.23;;;;;;;17.11;52.89;100174.73;362214;147;864756;-57
2022/06/16 04:47:15;;;;;;;4.34;2.32;;;;;;;17.15;53.01;100176.36;353579;150;856502;-57
2022/06/16 04:48:17;;;;;;;3.18;2.31;;;;;;;17.18;52.77;100178.03;354215;148;857231;-58
2022/06/16 04:49:19;;;;;;;3.13;2.00;;;;;;;17.18;52.43;100176.25;356911;147;865636;-57
2022/06/16 04:50:21;;;;;;;2.95;2.13;;;;;;;17.14;52.18;100179.87;360185;147;857264;-57
2022/06/16 04:51:23;;;;;;;4.30;2.29;;;;;;;17.17;52.31;100181.55;352077;150;866254;-58
2022/06/16 04:52:24;;;;;;;4.49;1.98;;;;;;;;;;358303;147;857439;-57
2022/06/16 04:53:26;;;;;;;4.37;2.56;;;;;;;;;;357794;147;864883;-58
2022/06/16 04:54:28;;;;;;;4.00;2.04;;;;;;;;;;349604;150;857360;-59
2022/06/16 04:55:30;;;;;;;4.39;2.11;;;;;;;;;;357858;147;865519;-58
2022/06/16 04:56:32;;;;;;;4.79;1.74;;;;;;;;;;356211;147;857441;-57
2022/06/16 04:57:34;;;;;;;3.71;1.86;;;;;;;;;;356855;147;857568;-58
2022/06/16 04:58:35;;;;;;;3.95;2.01;;;;;;;;;;356201;147;856433;-56
2022/06/16 04:59:37;;;;;;;3.17;1.84;;;;;;;;;;357557;147;856597;-56
2022/06/16 05:00:39;;;;;;;3.63;1.96;;;;;;;;;;358539;147;859195;-59
2022/06/16 05:01:40;;;;;;;4.20;2.06;;;;;;;;;;359670;147;864659;-57
2022/06/16 05:02:42;;;;;;;5.48;2.27;;;;;;;;;;356138;147;865527;-56
2022/06/16 05:03:48;;;;;;;4.39;1.83;;;;;;;;;;355757;147;864835;-58
2022/06/16 05:04:51;;;;;;;3.51;1.72;;;;;;;;;;345665;152;863533;-57
2022/06/16 05:05:53;;;;;;;6.85;1.95;;;;;;;;;;343589;153;856262;-58
2022/06/16 05:06:55;;;;;;;6.10;2.37;;;;;;;;;;357777;147;863561;-60
2022/06/16 05:07:57;;;;;;;4.20;2.13;;;;;;;;;;357090;148;856309;-59
2022/06/16 05:08:59;;;;;;;3.51;2.29;;;;;;;;;;356744;147;863522;-58
2022/06/16 05:10:00;;;;;;;4.03;1.94;;;;;;;;;;357397;147;865462;-57
2022/06/16 05:11:07;;;;;;;4.43;1.97;;;;;;;;;;357209;147;863500;-58
2022/06/16 05:12:06;;;;;;;4.93;1.92;;;;;;;;;;356026;147;863699;-59
2022/06/16 05:13:08;;;;;;;2.49;1.77;;;;;;;;;;356965;147;856810;-60
2022/06/16 05:14:10;;;;;;;3.66;1.66;;;;;;;;;;355960;147;856226;-58
2022/06/16 05:15:12;;;;;;;3.77;1.69;;;;;;;;;;356471;147;863563;-57
2022/06/16 05:16:15;;;;;;;3.87;1.76;;;;;;;;;;355590;147;856785;-58
2022/06/16 05:17:16;;;;;;;5.48;1.70;;;;;;;;;;356502;147;856369;-58
2022/06/16 05:18:18;;;;;;;3.26;2.02;;;;;;;;;;355698;147;858834;-60
2022/06/16 05:19:19;;;;;;;5.03;2.37;;;;;;;;;;356043;147;863462;-59
2022/06/16 05:20:22;;;;;;;3.35;1.83;;;;;;;;;;359131;147;856725;-58
2022/06/16 05:21:24;;;;;;;5.01;1.72;;;;;;;;;;356761;147;856280;-58
2022/06/16 05:22:26;;;;;;;5.22;1.96;;;;;;;;;;359444;147;856247;-58
2022/06/16 05:23:28;;;;;;;3.66;1.86;;;;;;;;;;359686;147;863602;-58
2022/06/16 05:24:29;;;;;;;5.86;1.81;;;;;;;;;;359451;147;864110;-58
2022/06/16 05:25:31;;;;;;;5.13;1.98;;;;;;;;;;359515;147;856300;-58
2022/06/16 05:26:34;;;;;;;1.79;1.56;;;;;;;;;;357742;147;863734;-58
2022/06/16 05:27:36;;;;;;;3.19;1.50;;;;;;;;;;357834;147;863711;-58
2022/06/16 05:32:21;;;;;;;4.79;1.68;;;;;;;18.19;49.61;100185.17;367375;142;965265;-58
2022/06/16 05:33:23;;;;;;;3.59;1.63;;;;;;;;;;364024;145;865981;-59
2022/06/16 05:34:25;;;;;;;4.30;1.96;;;;;;;;;;363850;145;859169;-57
2022/06/16 05:35:27;;;;;;;3.81;1.86;;;;;;;;;;362960;145;865136;-59
2022/06/16 05:36:28;;;;;;;3.44;1.89;;;;;;;;;;363088;145;866094;-58
2022/06/16 05:37:33;;;;;;;3.19;1.45;;;;;;;;;;363421;147;865707;-59
2022/06/16 05:38:35;;;;;;;4.26;1.76;;;;;;;;;;362035;145;856284;-58
2022/06/16 05:39:36;;;;;;;4.39;2.01;;;;;;;;;;362832;147;859778;-58
2022/06/16 05:40:39;;;;;;;2.08;1.43;;;;;;;;;;360773;147;856633;-57
2022/06/16 05:41:41;;;;;;;6.83;1.94;;;;;;;;;;359871;147;858376;-58
2022/06/16 05:42:43;;;;;;;4.84;1.61;;;;;;;;;;361441;145;857180;-59
2022/06/16 05:43:44;;;;;;;2.52;1.52;;;;;;;;;;364792;145;866855;-58
2022/06/16 05:44:46;;;;;;;4.75;1.44;;;;;;;;;;363556;145;857379;-57
2022/06/16 05:45:48;;;;;;;4.99;1.55;;;;;;;;;;363250;147;863891;-57
2022/06/16 05:46:50;;;;;;;4.98;1.75;;;;;;;;;;364418;147;857741;-57
2022/06/16 05:47:53;;;;;;;3.59;1.62;;;;;;;;;;362763;146;857090;-57
2022/06/16 05:48:55;;;;;;;2.71;1.40;;;;;;;;;;364832;145;857405;-58
2022/06/16 05:49:58;;;;;;;4.01;1.72;;;;;;;;;;364383;146;864898;-58
2022/06/16 05:51:03;;;;;;;3.52;1.62;;;;;;;;;;361998;145;859356;-58
2022/06/16 05:52:07;;;;;;;5.57;1.43;;;;;;;;;;365712;145;864424;-58
2022/06/16 05:53:08;;;;;;;3.18;1.44;;;;;;;;;;364193;146;860710;-58
2022/06/16 05:54:10;;;;;;;6.24;1.96;;;;;;;;;;365534;145;857678;-59
2022/06/16 05:55:12;;;;;;;2.31;1.60;;;;;;;;;;363786;146;864830;-57
2022/06/16 05:56:15;;;;;;;3.14;1.40;;;;;;;;;;365576;145;856965;-57
2022/06/16 05:57:16;;;;;;;2.96;1.35;;;;;;;;;;365249;146;856263;-57
2022/06/16 05:58:18;;;;;;;1.77;1.20;;;;;;;;;;364321;146;863219;-58
2022/06/16 05:59:20;;;;;;;2.26;1.14;;;;;;;;;;364665;145;863678;-57
2022/06/16 06:00:22;;;;;;;3.84;1.53;;;;;;;;;;364889;145;863770;-58
2022/06/16 06:01:23;;;;;;;3.40;1.67;;;;;;;;;;362940;147;863596;-56
2022/06/16 06:02:27;;;;;;;1.68;1.19;;;;;;;;;;364334;147;863876;-56
2022/06/16 06:03:28;;;;;;;4.94;1.36;;;;;;;;;;364687;146;856409;-57
2022/06/16 06:04:31;;;;;;;4.69;1.46;;;;;;;;;;366784;146;857017;-58
2022/06/16 06:05:32;;;;;;;4.27;1.33;;;;;;;;;;362949;146;856398;-56
2022/06/16 06:06:34;;;;;;;2.81;1.43;;;;;;;;;;363294;146;863712;-57
2022/06/16 06:16:58;;;;;;;5.36;1.71;;;;;;;;;;363616;145;856302;-58
2022/06/16 06:18:00;;;;;;;4.22;1.51;;;;;;;;;;363116;145;863748;-58
2022/06/16 06:19:23;;;;;;;2.29;1.39;;;;;;;;;;358211;148;860157;-58
2022/06/16 06:20:10;;;;;;;2.04;1.22;;;;;;;;;;355696;146;858228;-59
2022/06/16 06:21:12;;;;;;;2.83;1.37;;;;;;;;;;364046;145;856401;-57
2022/06/16 06:22:14;;;;;;;4.84;1.48;;;;;;;;;;363994;145;857674;-58
2022/06/16 06:23:16;;;;;;;5.84;1.79;;;;;;;;;;364666;145;858948;-58
2022/06/16 06:24:18;;;;;;;2.33;1.06;;;;;;;;;;361885;146;858339;-58
2022/06/16 06:25:19;;;;;;;3.83;1.31;;;;;;;;;;361481;145;857270;-58
2022/06/16 06:26:21;;;;;;;8.84;1.88;;;;;;;;;;363819;145;857264;-57
2022/06/16 06:27:32;;;;;;;2.75;1.14;;;;;;;;;;362932;146;866046;-57
2022/06/16 06:28:34;;;;;;;3.94;1.34;;;;;;;;;;363572;145;857460;-58
2022/06/16 06:29:36;;;;;;;1.43;0.99;;;;;;;;;;361980;147;857557;-58
2022/06/16 06:30:37;;;;;;;3.01;1.12;;;;;;;;;;362097;145;856631;-58
2022/06/16 06:31:39;;;;;;;3.47;1.26;;;;;;;;;;362054;146;864522;-59
2022/06/16 06:32:41;;;;;;;1.76;1.24;;;;;;;;;;361536;145;865513;-58
2022/06/16 06:33:44;;;;;;;3.26;1.21;;;;;;;;;;362915;145;864744;-58